createdAt,value
2022-09-21T00:00:31.051Z,2.70
2022-09-21T00:02:03.298Z,2.70
2022-09-21T00:03:36.078Z,2.83
2022-09-21T00:05:08.914Z,2.70
2022-09-21T00:06:40.969Z,2.90
2022-09-21T00:08:14.414Z,2.67
2022-09-21T00:11:21.078Z,2.67
2022-09-21T00:12:53.438Z,2.78
2022-09-21T00:14:25.657Z,2.50
2022-09-21T00:15:57.728Z,2.92
2022-09-21T00:17:29.920Z,3.03
2022-09-21T00:19:02.266Z,2.80
2022-09-21T00:20:34.271Z,2.90
2022-09-21T00:22:07.686Z,3.10
2022-09-21T00:23:40.163Z,2.83
2022-09-21T00:25:12.139Z,2.80
2022-09-21T00:28:19.891Z,2.78
2022-09-21T00:29:51.880Z,2.58
2022-09-21T00:31:24.533Z,2.80
2022-09-21T00:32:56.561Z,2.60
2022-09-21T00:34:28.583Z,2.70
2022-09-21T00:36:08.908Z,2.50
2022-09-21T00:37:40.880Z,2.80
2022-09-21T00:39:13.009Z,2.60
2022-09-21T00:40:45.256Z,2.70
2022-09-21T00:42:22.468Z,3.17
2022-09-21T00:44:22.439Z,2.83
2022-09-21T00:46:01.754Z,2.92
2022-09-21T00:47:37.892Z,2.63
2022-09-21T00:49:10.379Z,2.70
2022-09-21T00:50:49.325Z,2.90
2022-09-21T00:52:23.858Z,3.08
2022-09-21T00:54:00.352Z,2.80
2022-09-21T00:55:37.634Z,2.80
2022-09-21T00:57:09.866Z,2.90
2022-09-21T00:58:47.527Z,2.33
2022-09-21T01:01:55.224Z,2.63
2022-09-21T01:03:29.431Z,2.97
2022-09-21T01:05:01.555Z,2.97
2022-09-21T01:06:34.106Z,2.85
2022-09-21T01:08:08.057Z,3.00
2022-09-21T01:09:42.208Z,2.67
2022-09-21T01:11:42.856Z,2.97
2022-09-21T01:13:17.655Z,2.70
2022-09-21T01:15:07.709Z,2.50
2022-09-21T01:16:49.081Z,2.70
2022-09-21T01:18:37.685Z,2.88
2022-09-21T01:20:40.581Z,2.60
2022-09-21T01:22:49.969Z,2.45
2022-09-21T01:24:51.136Z,2.60
2022-09-21T01:26:45.551Z,2.45
2022-09-21T01:28:35.303Z,2.50
2022-09-21T01:30:16.159Z,2.60
2022-09-21T01:32:09.638Z,2.63
2022-09-21T01:33:51.956Z,2.58
2022-09-21T01:37:08.829Z,2.58
2022-09-21T01:38:50.258Z,2.47
2022-09-21T01:40:35.907Z,2.15
2022-09-21T01:42:08.885Z,2.33
2022-09-21T01:43:47.899Z,2.05
2022-09-21T01:45:24.245Z,2.25
2022-09-21T01:46:57.969Z,2.50
2022-09-21T01:48:33.495Z,2.17
2022-09-21T01:50:07.906Z,2.50
2022-09-21T01:51:44.341Z,2.40
2022-09-21T01:53:26.936Z,2.30
2022-09-21T01:55:04.153Z,2.20
2022-09-21T01:56:39.666Z,3.10
2022-09-21T01:58:30.323Z,2.60
2022-09-21T02:00:02.514Z,2.67
2022-09-21T02:01:42.156Z,2.60
2022-09-21T02:03:57.716Z,2.72
2022-09-21T02:07:02.669Z,2.22
2022-09-21T02:08:35.072Z,2.63
2022-09-21T02:10:07.868Z,2.72
2022-09-21T02:11:44.534Z,2.47
2022-09-21T02:13:17.848Z,2.50
2022-09-21T02:14:51.549Z,2.60
2022-09-21T02:16:35.886Z,2.38
2022-09-21T02:18:18.866Z,2.50
2022-09-21T02:20:21.020Z,2.22
2022-09-21T02:22:06.311Z,2.33
2022-09-21T02:23:46.739Z,2.70
2022-09-21T02:25:45.974Z,2.38
2022-09-21T02:27:36.587Z,2.35
2022-09-21T02:29:18.766Z,2.22
2022-09-21T02:31:02.657Z,2.70
2022-09-21T02:33:01.525Z,2.47
2022-09-21T02:34:41.182Z,2.30
2022-09-21T02:36:23.013Z,2.38
2022-09-21T02:38:19.748Z,2.67
2022-09-21T02:40:05.403Z,2.40
2022-09-21T02:42:04.791Z,2.10
2022-09-21T02:44:04.435Z,2.63
2022-09-21T02:45:45.464Z,2.63
2022-09-21T02:47:22.035Z,2.30
2022-09-21T02:48:58.093Z,2.53
2022-09-21T02:50:52.378Z,2.58
2022-09-21T02:52:25.832Z,2.42
2022-09-21T02:55:30.089Z,2.50
2022-09-21T02:57:03.025Z,2.25
2022-09-21T02:58:38.311Z,2.38
2022-09-21T03:00:11.305Z,2.33
2022-09-21T03:01:43.880Z,2.60
2022-09-21T03:03:21.434Z,2.45
2022-09-21T03:04:55.857Z,2.30
2022-09-21T03:06:28.105Z,2.40
2022-09-21T03:08:00.285Z,2.47
2022-09-21T03:09:32.288Z,2.45
2022-09-21T03:11:04.416Z,2.60
2022-09-21T03:12:37.370Z,2.40
2022-09-21T03:14:09.491Z,2.40
2022-09-21T03:15:41.711Z,2.50
2022-09-21T03:17:13.814Z,2.40
2022-09-21T03:18:45.812Z,2.88
2022-09-21T03:20:17.774Z,2.30
2022-09-21T03:21:49.757Z,2.40
2022-09-21T03:23:22.011Z,2.80
2022-09-21T03:24:57.828Z,2.85
2022-09-21T03:26:30.069Z,3.13
2022-09-21T03:28:02.811Z,2.80
2022-09-21T03:29:34.796Z,2.83
2022-09-21T03:31:07.288Z,3.00
2022-09-21T03:32:42.135Z,2.70
2022-09-21T03:34:14.143Z,2.60
2022-09-21T03:35:48.088Z,2.42
2022-09-21T03:37:20.102Z,2.67
2022-09-21T03:38:52.108Z,2.90
2022-09-21T03:40:24.635Z,2.70
2022-09-21T03:41:57.226Z,2.78
2022-09-21T03:43:29.286Z,2.75
2022-09-21T03:45:02.369Z,2.78
2022-09-21T03:46:37.120Z,2.50
2022-09-21T03:48:10.200Z,2.67
2022-09-21T03:49:42.185Z,2.40
2022-09-21T03:51:14.754Z,3.05
2022-09-21T03:52:47.084Z,2.73
2022-09-21T03:54:19.211Z,2.38
2022-09-21T03:55:51.266Z,2.83
2022-09-21T03:57:23.426Z,2.70
2022-09-21T03:58:55.548Z,2.80
2022-09-21T04:00:28.099Z,2.75
2022-09-21T04:02:00.149Z,2.50
2022-09-21T04:03:32.246Z,2.60
2022-09-21T04:05:04.545Z,2.45
2022-09-21T04:06:36.840Z,2.47
2022-09-21T04:08:10.407Z,2.70
2022-09-21T04:09:42.492Z,2.65
2022-09-21T04:11:17.141Z,2.90
2022-09-21T04:12:49.442Z,2.58
2022-09-21T04:14:22.671Z,2.67
2022-09-21T04:15:54.855Z,2.65
2022-09-21T04:17:26.909Z,2.50
2022-09-21T04:18:59.106Z,2.60
2022-09-21T04:20:32.832Z,2.67
2022-09-21T04:22:04.943Z,2.80
2022-09-21T04:23:36.987Z,2.85
2022-09-21T04:25:11.017Z,2.53
2022-09-21T04:26:43.149Z,2.85
2022-09-21T04:28:15.219Z,2.60
2022-09-21T04:29:47.268Z,2.83
2022-09-21T04:31:19.633Z,2.70
2022-09-21T04:32:51.767Z,2.90
2022-09-21T04:34:23.795Z,2.70
2022-09-21T04:35:56.311Z,3.10
2022-09-21T04:37:28.419Z,3.10
2022-09-21T04:39:04.172Z,3.20
2022-09-21T04:40:36.194Z,3.15
2022-09-21T04:42:08.267Z,3.30
2022-09-21T04:43:44.695Z,3.50
2022-09-21T04:45:16.764Z,3.40
2022-09-21T04:46:49.199Z,3.30
2022-09-21T04:48:21.324Z,3.08
2022-09-21T04:49:53.906Z,3.10
2022-09-21T04:51:25.998Z,2.80
2022-09-21T04:54:32.037Z,3.20
2022-09-21T04:56:05.441Z,2.92
2022-09-21T04:57:37.492Z,3.15
2022-09-21T04:59:09.571Z,3.03
2022-09-21T05:00:41.605Z,3.30
2022-09-21T05:02:13.681Z,3.30
2022-09-21T05:03:45.799Z,3.03
2022-09-21T05:05:17.899Z,2.88
2022-09-21T05:06:50.255Z,3.30
2022-09-21T05:08:42.233Z,3.50
2022-09-21T05:10:14.458Z,3.08
2022-09-21T05:11:46.667Z,3.10
2022-09-21T05:13:19.879Z,3.17
2022-09-21T05:14:52.304Z,3.22
2022-09-21T05:16:24.395Z,2.95
2022-09-21T05:17:56.495Z,2.55
2022-09-21T05:19:28.460Z,2.42
2022-09-21T05:21:01.809Z,2.92
2022-09-21T05:22:34.076Z,2.70
2022-09-21T05:24:06.329Z,3.00
2022-09-21T05:25:38.492Z,2.60
2022-09-21T05:27:11.071Z,2.70
2022-09-21T05:28:43.543Z,2.63
2022-09-21T05:30:15.988Z,2.92
2022-09-21T05:32:11.323Z,2.60
2022-09-21T05:34:13.655Z,2.58
2022-09-21T05:36:09.333Z,2.58
2022-09-21T05:37:56.225Z,3.30
2022-09-21T05:39:28.504Z,2.78
2022-09-21T05:41:01.287Z,2.50
2022-09-21T05:42:33.909Z,2.20
2022-09-21T05:44:06.464Z,2.40
2022-09-21T05:45:47.569Z,2.30
2022-09-21T05:47:25.552Z,2.30
2022-09-21T05:49:14.069Z,2.00
2022-09-21T05:51:07.516Z,1.98
2022-09-21T05:52:51.580Z,2.60
2022-09-21T05:54:45.761Z,2.47
2022-09-21T05:56:43.301Z,1.90
2022-09-21T05:58:24.108Z,2.28
2022-09-21T06:00:11.549Z,2.22
2022-09-21T06:02:07.762Z,2.05
2022-09-21T06:03:41.854Z,2.28
2022-09-21T06:05:15.432Z,2.33
2022-09-21T06:06:47.766Z,2.45
2022-09-21T06:08:20.317Z,2.20
2022-09-21T06:09:52.476Z,2.13
2022-09-21T06:11:24.969Z,2.40
2022-09-21T06:12:57.536Z,2.35
2022-09-21T06:14:29.734Z,1.90
2022-09-21T06:16:05.592Z,1.90
2022-09-21T06:17:38.067Z,2.10
2022-09-21T06:19:13.635Z,2.47
2022-09-21T06:20:46.214Z,1.95
2022-09-21T06:22:18.215Z,2.20
2022-09-21T06:23:50.319Z,2.10
2022-09-21T06:25:22.358Z,2.20
2022-09-21T06:28:30.324Z,2.00
2022-09-21T06:30:02.678Z,1.77
2022-09-21T06:31:35.205Z,2.30
2022-09-21T06:33:07.844Z,2.00
2022-09-21T06:34:40.062Z,1.90
2022-09-21T06:36:12.324Z,2.00
2022-09-21T06:37:44.811Z,2.15
2022-09-21T06:39:17.138Z,2.00
2022-09-21T06:40:52.689Z,1.92
2022-09-21T06:42:24.698Z,1.70
2022-09-21T06:43:57.480Z,2.00
2022-09-21T06:45:30.442Z,1.80
2022-09-21T06:47:02.545Z,1.80
2022-09-21T06:48:34.805Z,2.38
2022-09-21T06:50:07.376Z,2.00
2022-09-21T06:51:39.582Z,2.38
2022-09-21T06:53:11.565Z,1.98
2022-09-21T06:54:43.551Z,1.95
2022-09-21T06:56:16.460Z,2.22
2022-09-21T06:57:48.811Z,2.10
2022-09-21T06:59:20.841Z,2.00
2022-09-21T07:00:53.925Z,1.90
2022-09-21T07:02:25.960Z,1.80
2022-09-21T07:03:58.269Z,2.00
2022-09-21T07:05:30.573Z,1.90
2022-09-21T07:07:05.055Z,2.00
2022-09-21T07:10:29.591Z,2.20
2022-09-21T07:12:02.203Z,2.28
2022-09-21T07:13:34.512Z,2.22
2022-09-21T07:15:07.274Z,2.25
2022-09-21T07:16:40.338Z,2.15
2022-09-21T07:18:14.132Z,2.65
2022-09-21T07:19:46.462Z,2.22
2022-09-21T07:21:18.559Z,2.25
2022-09-21T07:22:50.655Z,2.10
2022-09-21T07:24:22.964Z,2.00
2022-09-21T07:25:55.287Z,2.20
2022-09-21T07:27:30.285Z,1.88
2022-09-21T07:29:02.495Z,2.10
2022-09-21T07:30:35.163Z,2.10
2022-09-21T07:32:07.560Z,2.10
2022-09-21T07:33:39.629Z,2.00
2022-09-21T07:35:12.262Z,2.40
2022-09-21T07:36:44.586Z,1.95
2022-09-21T07:38:16.661Z,2.00
2022-09-21T07:39:48.947Z,2.10
2022-09-21T07:41:21.719Z,2.10
2022-09-21T07:42:56.713Z,1.85
2022-09-21T07:44:28.894Z,2.10
2022-09-21T07:46:04.096Z,2.15
2022-09-21T07:47:36.464Z,2.28
2022-09-21T07:49:08.573Z,2.28
2022-09-21T07:50:41.170Z,1.80
2022-09-21T07:52:13.203Z,1.80
2022-09-21T07:53:45.727Z,1.70
2022-09-21T07:57:09.824Z,1.80
2022-09-21T07:59:00.984Z,1.88
2022-09-21T08:00:35.274Z,2.10
2022-09-21T08:02:07.658Z,2.10
2022-09-21T08:03:40.042Z,2.03
2022-09-21T08:05:12.337Z,1.60
2022-09-21T08:06:44.526Z,1.50
2022-09-21T08:08:17.464Z,1.55
2022-09-21T08:09:51.201Z,1.70
2022-09-21T08:11:24.102Z,1.60
2022-09-21T08:12:57.050Z,1.75
2022-09-21T08:14:29.641Z,1.77
2022-09-21T08:16:02.961Z,1.95
2022-09-21T08:17:38.848Z,1.70
2022-09-21T08:19:11.197Z,2.00
2022-09-21T08:20:45.345Z,1.40
2022-09-21T08:22:17.444Z,1.38
2022-09-21T08:23:50.023Z,1.50
2022-09-21T08:25:22.683Z,1.50
2022-09-21T08:26:56.454Z,1.65
2022-09-21T08:28:32.413Z,1.83
2022-09-21T08:30:05.419Z,1.38
2022-09-21T08:31:37.705Z,1.50
2022-09-21T08:33:10.136Z,1.50
2022-09-21T08:34:42.164Z,1.50
2022-09-21T08:36:14.426Z,1.65
2022-09-21T08:37:46.933Z,1.55
2022-09-21T08:39:20.524Z,1.60
2022-09-21T08:40:53.470Z,1.70
2022-09-21T08:42:40.518Z,1.60
2022-09-21T08:44:18.457Z,1.50
2022-09-21T08:45:50.781Z,1.80
2022-09-21T08:47:36.134Z,2.00
2022-09-21T08:49:21.908Z,1.60
2022-09-21T08:50:57.557Z,1.80
2022-09-21T08:52:30.543Z,1.75
2022-09-21T08:55:50.335Z,1.40
2022-09-21T08:57:23.895Z,1.77
2022-09-21T08:58:56.025Z,1.50
2022-09-21T09:00:30.345Z,1.60
2022-09-21T09:02:22.910Z,1.50
2022-09-21T09:04:26.386Z,1.50
2022-09-21T09:06:14.936Z,1.52
2022-09-21T09:08:33.499Z,1.45
2022-09-21T09:10:20.876Z,1.50
2022-09-21T09:12:14.463Z,1.50
2022-09-21T09:14:14.855Z,1.60
2022-09-21T09:15:52.830Z,1.48
2022-09-21T09:17:37.472Z,1.60
2022-09-21T09:19:30.631Z,1.45
2022-09-21T09:21:07.228Z,1.50
2022-09-21T09:22:49.474Z,1.90
2022-09-21T09:24:34.071Z,1.42
2022-09-21T09:26:11.687Z,1.65
2022-09-21T09:27:45.513Z,2.00
2022-09-21T09:29:45.051Z,1.95
2022-09-21T09:31:22.925Z,1.90
2022-09-21T09:33:22.264Z,1.58
2022-09-21T09:35:06.018Z,1.45
2022-09-21T09:36:57.823Z,1.55
2022-09-21T09:38:39.217Z,1.50
2022-09-21T09:40:13.536Z,1.77
2022-09-21T09:42:08.785Z,1.58
2022-09-21T09:44:11.547Z,1.30
2022-09-21T09:46:19.182Z,1.30
2022-09-21T09:48:03.238Z,1.40
2022-09-21T09:50:04.680Z,2.20
2022-09-21T09:51:37.191Z,1.70
2022-09-21T09:53:17.342Z,1.80
2022-09-21T09:54:49.981Z,1.92
2022-09-21T09:56:26.206Z,1.50
2022-09-21T09:57:59.464Z,2.10
2022-09-21T09:59:41.295Z,1.70
2022-09-21T10:01:43.027Z,1.50
2022-09-21T10:03:23.661Z,1.60
2022-09-21T10:05:06.609Z,1.70
2022-09-21T10:06:45.151Z,1.92
2022-09-21T10:08:47.889Z,1.88
2022-09-21T10:10:37.711Z,1.70
2022-09-21T10:12:33.523Z,1.60
2022-09-21T10:14:10.304Z,1.80
2022-09-21T10:15:45.587Z,1.90
2022-09-21T10:17:19.282Z,1.90
2022-09-21T10:18:56.825Z,1.80
2022-09-21T10:20:31.291Z,1.75
2022-09-21T10:22:05.109Z,1.58
2022-09-21T10:23:38.547Z,1.73
2022-09-21T10:26:54.938Z,1.70
2022-09-21T10:28:27.359Z,1.90
2022-09-21T10:29:59.357Z,1.70
2022-09-21T10:31:32.231Z,1.60
2022-09-21T10:33:05.152Z,1.52
2022-09-21T10:34:37.590Z,1.83
2022-09-21T10:36:33.015Z,1.67
2022-09-21T10:38:21.984Z,1.77
2022-09-21T10:39:55.430Z,1.60
2022-09-21T10:41:27.672Z,1.85
2022-09-21T10:43:01.047Z,2.28
2022-09-21T10:46:08.157Z,2.10
2022-09-21T10:47:43.663Z,1.80
2022-09-21T10:49:21.908Z,1.60
2022-09-21T10:50:55.894Z,1.55
2022-09-21T10:52:44.067Z,1.58
2022-09-21T10:54:23.137Z,1.52
2022-09-21T10:56:17.906Z,1.77
2022-09-21T10:57:52.170Z,1.70
2022-09-21T10:59:31.233Z,1.60
2022-09-21T11:01:24.310Z,1.90
2022-09-21T11:03:01.433Z,2.00
2022-09-21T11:04:42.749Z,1.90
2022-09-21T11:06:28.926Z,2.30
2022-09-21T11:08:33.653Z,3.08
2022-09-21T11:10:20.909Z,2.00
2022-09-21T11:12:17.713Z,2.00
2022-09-21T11:14:15.785Z,2.13
2022-09-21T11:16:00.217Z,1.80
2022-09-21T11:18:06.492Z,1.88
2022-09-21T11:19:53.452Z,1.90
2022-09-21T11:21:45.263Z,1.80
2022-09-21T11:23:37.941Z,1.67
2022-09-21T11:25:19.029Z,1.45
2022-09-21T11:27:07.526Z,1.73
2022-09-21T11:30:19.020Z,1.80
2022-09-21T11:32:29.992Z,2.72
2022-09-21T11:34:34.175Z,2.10
2022-09-21T11:36:25.876Z,1.50
2022-09-21T11:38:04.935Z,1.60
2022-09-21T11:40:15.726Z,1.50
2022-09-21T11:41:50.870Z,3.10
2022-09-21T11:43:30.114Z,11.23
2022-09-21T11:45:04.124Z,2.85
2022-09-21T11:47:13.001Z,2.17
2022-09-21T11:48:47.703Z,1.85
2022-09-21T11:50:38.051Z,1.85
2022-09-21T11:52:16.117Z,1.83
2022-09-21T11:54:33.246Z,1.60
2022-09-21T11:56:11.789Z,1.75
2022-09-21T11:57:44.575Z,2.92
2022-09-21T11:59:27.736Z,1.90
2022-09-21T12:01:24.321Z,1.92
2022-09-21T12:03:36.574Z,1.90
2022-09-21T12:05:32.406Z,1.90
2022-09-21T12:07:15.995Z,1.70
2022-09-21T12:09:09.840Z,1.67
2022-09-21T12:10:44.780Z,1.70
2022-09-21T12:12:24.341Z,1.60
2022-09-21T12:14:08.964Z,1.85
2022-09-21T12:15:53.143Z,2.08
2022-09-21T12:17:40.139Z,1.60
2022-09-21T12:20:02.758Z,1.70
2022-09-21T12:21:41.430Z,1.60
2022-09-21T12:23:20.384Z,1.73
2022-09-21T12:24:56.449Z,1.60
2022-09-21T12:26:34.966Z,1.70
2022-09-21T12:28:12.328Z,1.50
2022-09-21T12:29:50.162Z,1.63
2022-09-21T12:31:31.313Z,1.90
2022-09-21T12:33:36.456Z,1.60
2022-09-21T12:35:15.451Z,1.90
2022-09-21T12:37:09.127Z,1.60
2022-09-21T12:39:14.718Z,1.83
2022-09-21T12:41:08.090Z,2.05
2022-09-21T12:42:54.805Z,2.20
2022-09-21T12:44:34.050Z,1.70
2022-09-21T12:46:13.417Z,1.88
2022-09-21T12:47:54.217Z,1.58
2022-09-21T12:49:30.836Z,1.92
2022-09-21T12:51:12.437Z,1.77
2022-09-21T12:52:44.880Z,1.80
2022-09-21T12:54:29.148Z,1.90
2022-09-21T12:56:09.795Z,1.50
2022-09-21T12:58:13.931Z,1.80
2022-09-21T13:00:03.913Z,1.80
2022-09-21T13:01:41.357Z,1.98
2022-09-21T13:03:16.210Z,2.00
2022-09-21T13:05:06.918Z,2.03
2022-09-21T13:07:08.487Z,2.00
2022-09-21T13:08:44.335Z,2.40
2022-09-21T13:10:22.757Z,2.40
2022-09-21T13:11:58.204Z,2.30
2022-09-21T13:13:34.966Z,2.10
2022-09-21T13:15:43.648Z,1.92
2022-09-21T13:17:24.963Z,2.05
2022-09-21T13:19:17.648Z,2.10
2022-09-21T13:20:52.498Z,2.25
2022-09-21T13:22:26.586Z,2.33
2022-09-21T13:24:03.263Z,2.90
2022-09-21T13:25:38.252Z,3.05
2022-09-21T13:27:10.645Z,2.90
2022-09-21T13:30:49.348Z,2.25
2022-09-21T13:32:24.087Z,2.05
2022-09-21T13:34:23.794Z,1.95
2022-09-21T13:36:02.572Z,1.88
2022-09-21T13:37:34.892Z,2.00
2022-09-21T13:39:10.299Z,2.30
2022-09-21T13:40:50.709Z,1.80
2022-09-21T13:42:47.447Z,1.90
2022-09-21T13:44:34.729Z,2.15
2022-09-21T13:46:07.128Z,1.80
2022-09-21T13:47:42.110Z,2.00
2022-09-21T13:49:27.866Z,1.80
2022-09-21T13:51:01.979Z,1.90
2022-09-21T13:52:40.686Z,1.98
2022-09-21T13:54:14.510Z,2.30
2022-09-21T13:56:03.285Z,2.22
2022-09-21T13:57:50.573Z,2.15
2022-09-21T13:59:25.341Z,2.20
2022-09-21T14:01:00.562Z,2.20
2022-09-21T14:02:35.677Z,2.08
2022-09-21T14:04:21.401Z,2.25
2022-09-21T14:06:01.996Z,2.05
2022-09-21T14:07:35.080Z,1.98
2022-09-21T14:09:18.042Z,2.40
2022-09-21T14:10:58.669Z,2.33
2022-09-21T14:12:40.414Z,2.20
2022-09-21T14:14:12.878Z,2.58
2022-09-21T14:15:45.137Z,2.20
2022-09-21T14:17:38.068Z,2.53
2022-09-21T14:19:16.048Z,2.40
2022-09-21T14:21:08.157Z,2.15
2022-09-21T14:22:41.670Z,2.00
2022-09-21T14:24:23.357Z,2.35
2022-09-21T14:25:57.128Z,2.15
2022-09-21T14:27:45.869Z,2.00
2022-09-21T14:29:26.501Z,2.13
2022-09-21T14:31:20.702Z,2.35
2022-09-21T14:33:02.803Z,2.33
2022-09-21T14:34:37.660Z,1.88
2022-09-21T14:36:12.408Z,1.70
2022-09-21T14:37:52.545Z,1.88
2022-09-21T14:39:30.663Z,2.10
2022-09-21T14:41:07.815Z,1.80
2022-09-21T14:42:40.476Z,1.83
2022-09-21T14:44:21.572Z,2.00
2022-09-21T14:46:22.255Z,1.58
2022-09-21T14:48:00.843Z,1.58
2022-09-21T14:49:41.476Z,1.75
2022-09-21T14:51:40.770Z,1.70
2022-09-21T14:53:39.769Z,2.00
2022-09-21T14:55:24.371Z,1.90
2022-09-21T14:57:09.227Z,2.08
2022-09-21T14:59:08.364Z,1.90
2022-09-21T15:00:43.712Z,2.10
2022-09-21T15:02:24.670Z,2.22
2022-09-21T15:04:08.594Z,1.70
2022-09-21T15:05:49.001Z,2.28
2022-09-21T15:07:39.982Z,1.80
2022-09-21T15:10:09.741Z,2.25
2022-09-21T15:11:47.856Z,2.30
2022-09-21T15:13:57.200Z,1.92
2022-09-21T15:15:58.241Z,2.63
2022-09-21T15:17:31.765Z,2.15
2022-09-21T15:19:14.430Z,1.80
2022-09-21T15:21:02.097Z,2.55
2022-09-21T15:22:43.626Z,2.22
2022-09-21T15:24:33.212Z,2.30
2022-09-21T15:26:19.689Z,2.05
2022-09-21T15:27:53.373Z,2.30
2022-09-21T15:29:28.376Z,2.15
2022-09-21T15:31:00.623Z,2.50
2022-09-21T15:32:37.156Z,2.33
2022-09-21T15:34:11.483Z,2.30
2022-09-21T15:35:47.144Z,2.10
2022-09-21T15:37:19.536Z,1.95
2022-09-21T15:38:53.254Z,2.00
2022-09-21T15:40:30.334Z,2.20
2022-09-21T15:42:08.437Z,2.15
2022-09-21T15:43:41.175Z,2.20
2022-09-21T15:45:19.102Z,2.20
2022-09-21T15:47:01.374Z,2.20
2022-09-21T15:48:36.188Z,2.55
2022-09-21T15:50:18.502Z,2.40
2022-09-21T15:51:57.034Z,2.38
2022-09-21T15:53:32.400Z,2.20
2022-09-21T15:55:23.141Z,2.20
2022-09-21T15:56:56.159Z,2.28
2022-09-21T15:58:38.214Z,2.30
2022-09-21T16:00:16.520Z,2.85
2022-09-21T16:01:51.107Z,2.08
2022-09-21T16:03:26.419Z,2.63
2022-09-21T16:04:58.805Z,2.58
2022-09-21T16:06:39.967Z,2.63
2022-09-21T16:08:33.469Z,2.50
2022-09-21T16:10:30.171Z,2.20
2022-09-21T16:12:41.015Z,2.63
2022-09-21T16:14:33.194Z,2.22
2022-09-21T16:16:15.430Z,2.30
2022-09-21T16:18:12.074Z,2.35
2022-09-21T16:20:17.705Z,2.55
2022-09-21T16:21:49.922Z,2.50
2022-09-21T16:23:24.828Z,4.70
2022-09-21T16:25:00.630Z,5.30
2022-09-21T16:26:38.046Z,4.22
2022-09-21T16:28:18.984Z,4.30
2022-09-21T16:29:52.521Z,3.75
2022-09-21T16:31:36.547Z,3.63
2022-09-21T16:33:45.869Z,3.20
2022-09-21T16:35:31.910Z,3.30
2022-09-21T16:37:29.201Z,3.10
2022-09-21T16:39:07.388Z,3.30
2022-09-21T16:40:40.891Z,2.58
2022-09-21T16:42:13.496Z,2.60
2022-09-21T16:43:46.040Z,2.67
2022-09-21T16:45:24.979Z,2.30
2022-09-21T16:46:59.759Z,2.30
2022-09-21T16:48:32.025Z,2.50
2022-09-21T16:50:13.085Z,2.30
2022-09-21T16:51:47.553Z,2.28
2022-09-21T16:53:23.887Z,2.30
2022-09-21T16:54:59.917Z,2.20
2022-09-21T16:56:33.114Z,1.90
2022-09-21T16:58:05.507Z,2.10
2022-09-21T16:59:37.977Z,3.00
2022-09-21T17:01:21.381Z,2.70
2022-09-21T17:02:53.708Z,2.40
2022-09-21T17:04:29.991Z,2.78
2022-09-21T17:06:02.988Z,3.53
2022-09-21T17:07:35.314Z,3.22
2022-09-21T17:09:48.657Z,6.60
2022-09-21T17:11:20.980Z,10.57
2022-09-21T17:12:54.330Z,12.63
2022-09-21T17:15:59.040Z,9.57
2022-09-21T17:17:33.541Z,9.15
2022-09-21T17:19:05.777Z,7.90
2022-09-21T17:20:42.942Z,7.55
2022-09-21T17:22:17.657Z,7.07
2022-09-21T17:23:50.060Z,6.40
2022-09-21T17:25:22.171Z,6.63
2022-09-21T17:26:54.295Z,7.38
2022-09-21T17:28:26.756Z,7.05
2022-09-21T17:30:01.635Z,5.97
2022-09-21T17:31:34.129Z,7.10
2022-09-21T17:33:06.473Z,6.30
2022-09-21T17:34:38.834Z,7.00
2022-09-21T17:36:14.007Z,6.43
2022-09-21T17:37:46.566Z,6.65
2022-09-21T17:39:20.679Z,6.70
2022-09-21T17:40:54.001Z,7.35
2022-09-21T17:44:47.804Z,7.25
2022-09-21T18:01:44.531Z,3.17
2022-09-21T18:03:24.871Z,3.20
2022-09-21T18:05:01.415Z,2.97
2022-09-21T18:06:34.685Z,3.10
2022-09-21T18:08:08.439Z,3.40
2022-09-21T18:09:41.103Z,2.75
2022-09-21T18:11:25.533Z,2.97
2022-09-21T18:13:20.105Z,3.55
2022-09-21T18:14:53.076Z,4.55
2022-09-21T18:16:36.021Z,4.80
2022-09-21T18:18:19.172Z,4.65
2022-09-21T18:20:06.452Z,4.63
2022-09-21T18:21:41.971Z,4.63
2022-09-21T18:23:39.171Z,4.40
2022-09-21T18:25:34.322Z,4.18
2022-09-21T18:27:07.199Z,4.18
2022-09-21T18:28:42.802Z,3.85
2022-09-21T18:30:17.359Z,4.05
2022-09-21T18:32:10.558Z,3.35
2022-09-21T18:34:13.359Z,3.30
2022-09-21T18:36:21.155Z,3.33
2022-09-21T18:38:13.116Z,3.55
2022-09-21T18:39:59.009Z,3.10
2022-09-21T18:41:47.063Z,3.08
2022-09-21T18:43:46.320Z,3.33
2022-09-21T18:45:19.851Z,3.40
2022-09-21T18:47:18.043Z,3.03
2022-09-21T18:49:02.833Z,3.08
2022-09-21T18:50:54.087Z,3.30
2022-09-21T18:52:47.401Z,2.70
2022-09-21T18:54:24.476Z,2.83
2022-09-21T18:55:57.522Z,3.33
2022-09-21T18:57:33.004Z,3.38
2022-09-21T18:59:07.578Z,2.90
2022-09-21T19:00:40.445Z,2.90
2022-09-21T19:02:18.176Z,2.78
2022-09-21T19:03:51.000Z,3.28
2022-09-21T19:05:23.674Z,2.88
2022-09-21T19:07:36.367Z,2.78
2022-09-21T19:09:29.822Z,2.72
2022-09-21T19:11:08.683Z,2.65
2022-09-21T19:13:02.590Z,2.75
2022-09-21T19:14:50.160Z,2.83
2022-09-21T19:16:51.538Z,2.33
2022-09-21T19:18:32.079Z,2.80
2022-09-21T19:20:28.846Z,2.88
2022-09-21T19:22:13.732Z,2.92
2022-09-21T19:24:24.210Z,3.85
2022-09-21T19:26:20.520Z,3.08
2022-09-21T19:28:01.145Z,3.15
2022-09-21T19:29:57.492Z,2.97
2022-09-21T19:31:30.125Z,2.88
2022-09-21T19:33:32.406Z,3.10
2022-09-21T19:35:19.427Z,3.03
2022-09-21T19:36:52.287Z,3.08
2022-09-21T19:38:24.675Z,2.53
2022-09-21T19:39:57.117Z,3.00
2022-09-21T19:41:40.138Z,3.00
2022-09-21T19:43:28.988Z,3.03
2022-09-21T19:45:07.051Z,3.35
2022-09-21T19:46:42.093Z,3.70
2022-09-21T19:48:16.373Z,3.03
2022-09-21T19:49:54.797Z,3.55
2022-09-21T19:51:42.460Z,3.78
2022-09-21T19:53:33.791Z,4.10
2022-09-21T19:55:36.409Z,4.03
2022-09-21T19:57:35.468Z,5.43
2022-09-21T19:59:27.685Z,4.63
2022-09-21T20:01:00.220Z,3.58
2022-09-21T20:02:52.425Z,4.20
2022-09-21T20:04:34.341Z,4.38
2022-09-21T20:06:09.446Z,4.38
2022-09-21T20:07:44.831Z,3.80
2022-09-21T20:09:25.273Z,3.70
2022-09-21T20:11:11.061Z,3.80
2022-09-21T20:14:43.737Z,4.05
2022-09-21T20:16:41.624Z,3.80
2022-09-21T20:18:31.481Z,3.70
2022-09-21T20:20:21.741Z,3.88
2022-09-21T20:22:01.596Z,4.10
2022-09-21T20:23:36.547Z,4.15
2022-09-21T20:25:28.546Z,3.50
2022-09-21T20:27:03.910Z,3.60
2022-09-21T20:28:39.580Z,3.28
2022-09-21T20:30:14.565Z,3.55
2022-09-21T20:31:48.406Z,3.30
2022-09-21T20:33:24.388Z,3.30
2022-09-21T20:34:56.604Z,3.80
2022-09-21T20:36:29.681Z,3.47
2022-09-21T20:38:02.971Z,3.33
2022-09-21T20:39:35.428Z,3.40
2022-09-21T20:41:16.984Z,3.38
2022-09-21T20:42:49.153Z,3.75
2022-09-21T20:44:22.485Z,3.38
2022-09-21T20:45:58.207Z,3.28
2022-09-21T20:47:30.576Z,3.05
2022-09-21T20:49:05.675Z,3.08
2022-09-21T20:50:37.757Z,4.05
2022-09-21T20:52:11.607Z,5.28
2022-09-21T20:53:43.640Z,5.93
2022-09-21T20:55:20.604Z,4.90
2022-09-21T20:56:52.905Z,4.32
2022-09-21T20:58:25.516Z,4.60
2022-09-21T20:59:58.008Z,3.30
2022-09-21T21:01:30.172Z,4.27
2022-09-21T21:03:02.277Z,4.57
2022-09-21T21:04:34.383Z,4.10
2022-09-21T21:06:13.185Z,3.97
2022-09-21T21:07:45.431Z,3.60
2022-09-21T21:09:17.628Z,3.53
2022-09-21T21:10:49.854Z,5.00
2022-09-21T21:12:22.108Z,3.80
2022-09-21T21:13:56.316Z,3.85
2022-09-21T21:15:28.819Z,3.63
2022-09-21T21:17:00.849Z,3.77
2022-09-21T21:18:32.940Z,3.97
2022-09-21T21:20:06.916Z,3.80
2022-09-21T21:21:39.362Z,5.13
2022-09-21T21:23:11.436Z,3.50
2022-09-21T21:24:44.418Z,3.80
2022-09-21T21:26:16.885Z,4.13
2022-09-21T21:27:49.019Z,4.05
2022-09-21T21:29:21.699Z,3.97
2022-09-21T21:30:54.455Z,4.20
2022-09-21T21:32:27.169Z,3.90
2022-09-21T21:33:59.304Z,3.90
2022-09-21T21:35:32.464Z,4.30
2022-09-21T21:37:04.809Z,4.22
2022-09-21T21:38:38.764Z,4.63
2022-09-21T21:40:11.013Z,4.22
2022-09-21T22:15:46.508Z,4.15
2022-09-21T22:17:19.470Z,4.30
2022-09-21T22:18:52.291Z,4.10
2022-09-21T22:20:24.300Z,4.10
2022-09-21T22:21:56.509Z,4.15
2022-09-21T22:23:28.545Z,4.00
2022-09-21T22:25:00.475Z,3.83
2022-09-21T22:26:37.780Z,3.95
2022-09-21T22:28:09.765Z,3.75
2022-09-21T22:29:41.708Z,3.80
2022-09-21T22:31:16.417Z,3.90
2022-09-21T22:32:48.462Z,4.25
2022-09-21T22:34:21.196Z,4.10
2022-09-21T22:35:53.165Z,3.90
2022-09-21T22:37:25.682Z,4.35
2022-09-21T22:38:57.940Z,4.00
2022-09-21T22:40:29.916Z,3.75
2022-09-21T22:43:35.913Z,4.30
2022-09-21T22:45:08.137Z,4.10
2022-09-21T22:46:40.558Z,4.05
2022-09-21T22:48:12.516Z,4.10
2022-09-21T22:49:44.546Z,4.05
2022-09-21T22:51:18.154Z,4.43
2022-09-21T22:52:50.149Z,3.80
2022-09-21T22:54:22.174Z,3.90
2022-09-21T22:56:08.341Z,3.80
2022-09-21T22:57:40.390Z,3.58
2022-09-21T22:59:12.371Z,3.58
2022-09-21T23:00:44.391Z,3.22
2022-09-21T23:02:16.676Z,3.60
2022-09-21T23:03:49.730Z,3.45
2022-09-21T23:05:22.055Z,3.90
2022-09-21T23:06:54.055Z,3.20
2022-09-21T23:08:26.066Z,3.67
2022-09-21T23:09:58.050Z,3.30
2022-09-21T23:11:34.760Z,3.55
2022-09-21T23:13:06.694Z,3.35
2022-09-21T23:14:38.662Z,3.78
2022-09-21T23:16:12.868Z,3.40
2022-09-21T23:17:45.427Z,3.10
2022-09-21T23:19:17.979Z,3.13
2022-09-21T23:20:57.477Z,3.00
2022-09-21T23:22:29.707Z,3.20